createdAt,value
2024-01-10T00:01:58.627Z,0.50
2024-01-10T00:04:25.372Z,1.02
2024-01-10T00:06:52.032Z,0.70
2024-01-10T00:09:18.680Z,0.68
2024-01-10T00:11:45.480Z,0.60
2024-01-10T00:14:12.391Z,0.65
2024-01-10T00:16:39.174Z,0.73
2024-01-10T00:19:05.902Z,0.93
2024-01-10T00:21:32.702Z,1.05
2024-01-10T00:24:01.772Z,0.80
2024-01-10T00:26:28.470Z,1.67
2024-01-10T00:28:55.087Z,0.90
2024-01-10T00:31:31.040Z,0.80
2024-01-10T00:33:57.693Z,0.90
2024-01-10T00:36:25.312Z,0.67
2024-01-10T00:38:51.885Z,1.13
2024-01-10T00:41:19.008Z,0.77
2024-01-10T00:43:45.899Z,0.90
2024-01-10T00:46:12.710Z,1.40
2024-01-10T00:48:39.351Z,0.93
2024-01-10T00:51:10.077Z,1.00
2024-01-10T00:53:37.397Z,0.57
2024-01-10T00:56:04.257Z,1.05
2024-01-10T00:58:30.933Z,0.32
2024-01-10T01:00:57.615Z,0.87
2024-01-10T01:03:24.599Z,0.52
2024-01-10T01:05:51.385Z,0.80
2024-01-10T01:08:18.260Z,0.80
2024-01-10T01:10:44.947Z,0.50
2024-01-10T01:13:11.768Z,1.20
2024-01-10T01:15:38.405Z,0.80
2024-01-10T01:18:05.529Z,0.77
2024-01-10T01:20:32.298Z,1.02
2024-01-10T01:22:59.582Z,0.95
2024-01-10T01:25:26.283Z,0.80
2024-01-10T01:27:52.965Z,0.93
2024-01-10T01:30:23.011Z,1.08
2024-01-10T01:32:50.105Z,0.50
2024-01-10T01:35:23.087Z,0.80
2024-01-10T01:37:50.780Z,0.90
2024-01-10T01:40:17.604Z,0.70
2024-01-10T01:42:46.328Z,0.85
2024-01-10T01:45:13.541Z,0.80
2024-01-10T01:47:41.567Z,0.70
2024-01-10T01:50:08.916Z,1.93
2024-01-10T01:52:36.404Z,0.60
2024-01-10T01:55:03.762Z,1.15
2024-01-10T01:57:30.808Z,0.98
2024-01-10T01:59:58.145Z,0.80
2024-01-10T02:02:25.965Z,0.80
2024-01-10T02:04:53.187Z,0.70
2024-01-10T02:07:19.842Z,0.80
2024-01-10T02:09:46.546Z,0.70
2024-01-10T02:12:13.262Z,0.82
2024-01-10T02:14:39.991Z,1.13
2024-01-10T02:17:06.809Z,0.60
2024-01-10T02:19:36.109Z,0.80
2024-01-10T02:22:04.091Z,0.80
2024-01-10T02:24:30.685Z,1.10
2024-01-10T02:26:57.465Z,0.80
2024-01-10T02:29:25.335Z,1.08
2024-01-10T02:31:52.203Z,1.02
2024-01-10T02:34:19.005Z,1.20
2024-01-10T02:36:45.621Z,1.05
2024-01-10T02:39:12.252Z,1.10
2024-01-10T02:41:39.096Z,0.88
2024-01-10T02:44:05.815Z,1.00
2024-01-10T02:46:32.672Z,0.90
2024-01-10T02:48:59.398Z,0.55
2024-01-10T02:51:29.822Z,0.97
2024-01-10T02:53:56.407Z,0.80
2024-01-10T02:56:23.051Z,0.82
2024-01-10T02:58:49.643Z,1.27
2024-01-10T03:01:16.888Z,1.17
2024-01-10T03:03:43.623Z,1.23
2024-01-10T03:06:10.407Z,1.20
2024-01-10T03:08:37.102Z,0.80
2024-01-10T03:11:04.142Z,0.80
2024-01-10T03:13:31.199Z,1.02
2024-01-10T03:15:58.028Z,1.00
2024-01-10T03:18:25.391Z,0.80
2024-01-10T03:20:52.185Z,0.60
2024-01-10T03:23:19.269Z,1.15
2024-01-10T03:25:48.080Z,1.17
2024-01-10T03:28:19.044Z,0.60
2024-01-10T03:30:46.148Z,0.95
2024-01-10T03:33:12.959Z,1.00
2024-01-10T03:35:39.724Z,1.00
2024-01-10T03:38:06.919Z,0.93
2024-01-10T03:40:33.737Z,1.63
2024-01-10T03:43:00.652Z,0.80
2024-01-10T03:45:27.450Z,1.40
2024-01-10T03:47:54.624Z,0.70
2024-01-10T03:50:21.625Z,1.00
2024-01-10T03:52:48.672Z,1.17
2024-01-10T03:55:16.631Z,1.08
2024-01-10T03:57:43.769Z,1.20
2024-01-10T04:00:10.862Z,1.00
2024-01-10T04:02:40.138Z,1.02
2024-01-10T04:05:09.486Z,1.00
2024-01-10T04:07:37.560Z,0.95
2024-01-10T04:10:04.892Z,1.35
2024-01-10T04:12:31.537Z,0.95
2024-01-10T04:14:58.741Z,1.20
2024-01-10T04:17:25.459Z,1.03
2024-01-10T04:19:52.484Z,1.65
2024-01-10T04:22:19.428Z,1.08
2024-01-10T04:24:46.071Z,1.30
2024-01-10T04:27:13.038Z,1.17
2024-01-10T04:29:39.862Z,1.10
2024-01-10T04:32:06.844Z,1.63
2024-01-10T04:34:33.760Z,1.42
2024-01-10T04:37:01.085Z,0.68
2024-01-10T04:39:27.792Z,1.13
2024-01-10T04:41:54.928Z,1.30
2024-01-10T04:44:21.640Z,1.30
2024-01-10T04:46:48.443Z,1.52
2024-01-10T04:49:15.031Z,1.25
2024-01-10T04:51:41.846Z,0.50
2024-01-10T04:54:08.417Z,1.13
2024-01-10T04:56:37.258Z,1.25
2024-01-10T04:59:04.445Z,1.20
2024-01-10T05:01:31.770Z,1.17
2024-01-10T05:03:58.633Z,1.55
2024-01-10T05:06:25.311Z,1.53
2024-01-10T05:08:52.167Z,1.20
2024-01-10T05:11:19.069Z,1.02
2024-01-10T05:13:45.788Z,1.27
2024-01-10T05:16:12.642Z,1.02
2024-01-10T05:18:39.296Z,1.00
2024-01-10T05:21:06.083Z,1.20
2024-01-10T05:23:33.821Z,1.17
2024-01-10T05:26:01.097Z,0.70
2024-01-10T05:28:27.756Z,0.85
2024-01-10T05:30:55.717Z,1.13
2024-01-10T05:33:22.776Z,1.00
2024-01-10T05:35:49.515Z,1.00
2024-01-10T05:38:16.277Z,1.33
2024-01-10T05:40:43.052Z,0.93
2024-01-10T05:43:11.694Z,1.13
2024-01-10T05:45:38.382Z,1.30
2024-01-10T05:48:05.872Z,1.20
2024-01-10T05:50:33.070Z,1.30
2024-01-10T05:52:59.748Z,1.38
2024-01-10T05:55:26.357Z,1.33
2024-01-10T05:57:53.149Z,1.40
2024-01-10T06:00:22.397Z,1.30
2024-01-10T06:02:49.151Z,2.00
2024-01-10T06:05:16.063Z,1.58
2024-01-10T06:07:43.350Z,1.70
2024-01-10T06:10:12.669Z,1.23
2024-01-10T06:12:39.768Z,1.48
2024-01-10T06:15:08.150Z,1.42
2024-01-10T06:17:35.002Z,1.60
2024-01-10T06:20:02.108Z,1.23
2024-01-10T06:22:30.688Z,1.20
2024-01-10T06:24:57.663Z,1.52
2024-01-10T06:27:24.367Z,1.33
2024-01-10T06:29:51.206Z,1.30
2024-01-10T06:32:18.173Z,1.50
2024-01-10T06:34:45.099Z,1.35
2024-01-10T06:37:11.830Z,1.23
2024-01-10T06:39:38.457Z,1.65
2024-01-10T06:42:07.332Z,1.33
2024-01-10T06:44:34.926Z,1.77
2024-01-10T06:47:01.664Z,1.60
2024-01-10T06:49:28.836Z,1.40
2024-01-10T06:51:55.658Z,1.23
2024-01-10T06:54:22.485Z,1.80
2024-01-10T06:56:48.997Z,1.30
2024-01-10T06:59:15.698Z,1.58
2024-01-10T07:01:42.354Z,1.40
2024-01-10T07:04:11.389Z,1.50
2024-01-10T07:06:38.125Z,1.08
2024-01-10T07:09:06.872Z,1.37
2024-01-10T07:11:33.741Z,1.98
2024-01-10T07:14:00.654Z,1.55
2024-01-10T07:16:27.943Z,2.03
2024-01-10T07:18:54.627Z,2.17
2024-01-10T07:21:21.427Z,2.00
2024-01-10T07:23:48.066Z,1.70
2024-01-10T07:26:17.939Z,1.17
2024-01-10T07:28:44.958Z,1.77
2024-01-10T07:31:13.280Z,1.50
2024-01-10T07:33:40.201Z,1.73
2024-01-10T07:36:07.311Z,1.40
2024-01-10T07:38:37.281Z,1.38
2024-01-10T07:41:04.943Z,1.90
2024-01-10T07:43:32.153Z,1.85
2024-01-10T07:45:58.726Z,1.53
2024-01-10T07:48:26.162Z,1.92
2024-01-10T07:50:52.808Z,1.67
2024-01-10T07:53:19.584Z,2.67
2024-01-10T07:55:46.315Z,1.77
2024-01-10T07:58:12.935Z,1.70
2024-01-10T08:00:40.212Z,2.00
2024-01-10T08:03:06.983Z,2.10
2024-01-10T08:05:33.726Z,2.13
2024-01-10T08:08:00.481Z,1.73
2024-01-10T08:10:28.576Z,1.90
2024-01-10T08:12:55.739Z,2.47
2024-01-10T08:15:23.003Z,2.15
2024-01-10T08:17:50.854Z,2.15
2024-01-10T08:20:22.557Z,2.17
2024-01-10T08:22:50.048Z,1.57
2024-01-10T08:25:20.204Z,2.33
2024-01-10T08:27:47.646Z,2.28
2024-01-10T08:30:14.662Z,2.08
2024-01-10T08:32:41.670Z,2.40
2024-01-10T08:35:10.402Z,2.90
2024-01-10T08:37:38.673Z,2.78
2024-01-10T08:40:11.219Z,1.85
2024-01-10T08:42:39.154Z,2.22
2024-01-10T08:45:06.216Z,2.03
2024-01-10T08:47:34.037Z,1.80
2024-01-10T08:50:00.876Z,2.83
2024-01-10T08:52:27.846Z,2.15
2024-01-10T08:54:54.464Z,2.17
2024-01-10T08:57:21.150Z,2.20
2024-01-10T08:59:47.877Z,1.43
2024-01-10T09:02:14.636Z,1.85
2024-01-10T09:05:32.439Z,2.00
2024-01-10T09:08:34.959Z,2.65
2024-01-10T09:11:39.928Z,1.95
2024-01-10T09:43:55.105Z,2.60
2024-01-10T09:46:22.036Z,2.60
2024-01-10T09:48:50.881Z,2.58
2024-01-10T09:51:19.692Z,2.38
2024-01-10T09:53:51.830Z,2.53
2024-01-10T09:56:18.726Z,2.30
2024-01-10T09:58:49.300Z,2.33
2024-01-10T10:01:16.162Z,2.00
2024-01-10T10:03:47.293Z,2.72
2024-01-10T10:06:16.366Z,2.90
2024-01-10T10:08:43.312Z,2.93
2024-01-10T10:11:15.287Z,2.58
2024-01-10T10:13:43.492Z,2.30
2024-01-10T10:16:14.457Z,3.03
2024-01-10T10:18:44.030Z,2.92
2024-01-10T10:21:13.620Z,2.13
2024-01-10T10:23:58.162Z,2.05
2024-01-10T10:26:25.070Z,2.17
2024-01-10T10:28:53.301Z,2.80
2024-01-10T10:31:21.110Z,2.40
2024-01-10T10:33:52.150Z,2.70
2024-01-10T10:36:20.386Z,1.92
2024-01-10T10:38:50.410Z,2.85
2024-01-10T10:41:17.636Z,3.90
2024-01-10T10:43:44.644Z,3.08
2024-01-10T10:46:16.101Z,2.87
2024-01-10T10:48:44.515Z,3.40
2024-01-10T10:51:38.053Z,2.65
2024-01-10T10:54:05.843Z,3.05
2024-01-10T10:56:38.034Z,2.42
2024-01-10T10:59:06.211Z,2.90
2024-01-10T11:01:33.928Z,2.63
2024-01-10T11:04:00.810Z,2.70
2024-01-10T11:06:28.391Z,2.53
2024-01-10T11:09:12.304Z,2.80
2024-01-10T11:11:38.941Z,3.33
2024-01-10T11:15:04.365Z,3.38
2024-01-10T11:17:59.135Z,3.00
2024-01-10T11:21:01.102Z,3.13
2024-01-10T11:23:47.562Z,2.30
2024-01-10T11:26:16.386Z,2.63
2024-01-10T11:28:43.436Z,3.47
2024-01-10T11:31:10.651Z,3.38
2024-01-10T11:33:42.285Z,3.13
2024-01-10T11:36:12.157Z,3.03
2024-01-10T11:38:49.636Z,3.03
2024-01-10T11:41:26.012Z,2.70
2024-01-10T11:44:19.182Z,3.50
2024-01-10T11:46:50.595Z,3.45
2024-01-10T11:49:19.418Z,3.95
2024-01-10T11:51:49.163Z,3.33
2024-01-10T11:54:38.811Z,3.17
2024-01-10T11:57:20.104Z,2.67
2024-01-10T11:59:47.091Z,3.13
2024-01-10T12:02:16.152Z,2.30
2024-01-10T12:04:47.581Z,3.13
2024-01-10T12:07:17.806Z,2.83
2024-01-10T12:09:45.047Z,2.38
2024-01-10T12:12:12.751Z,2.33
2024-01-10T12:14:44.644Z,2.58
2024-01-10T12:17:11.587Z,2.93
2024-01-10T12:19:39.065Z,2.78
2024-01-10T12:22:08.239Z,2.97
2024-01-10T12:24:45.124Z,3.28
2024-01-10T12:27:11.703Z,2.58
2024-01-10T12:29:38.995Z,2.93
2024-01-10T12:32:06.257Z,3.03
2024-01-10T12:34:33.020Z,2.90
2024-01-10T12:37:01.567Z,2.95
2024-01-10T12:39:32.751Z,2.88
2024-01-10T12:41:59.962Z,2.73
2024-01-10T12:44:33.039Z,2.50
2024-01-10T12:47:01.488Z,2.63
2024-01-10T12:49:28.383Z,3.25
2024-01-10T12:51:56.012Z,3.10
2024-01-10T12:54:22.613Z,3.50
2024-01-10T12:56:49.416Z,2.63
2024-01-10T12:59:16.249Z,3.35
2024-01-10T13:01:43.723Z,3.17
2024-01-10T13:04:13.058Z,2.92
2024-01-10T13:06:40.650Z,2.77
2024-01-10T13:09:08.836Z,2.15
2024-01-10T13:11:35.627Z,3.25
2024-01-10T13:14:08.395Z,2.47
2024-01-10T13:16:46.174Z,2.05
2024-01-10T13:19:20.536Z,2.87
2024-01-10T13:21:47.383Z,2.45
2024-01-10T13:24:14.499Z,2.70
2024-01-10T13:26:41.229Z,2.53
2024-01-10T13:29:08.614Z,2.83
2024-01-10T13:31:37.751Z,3.80
2024-01-10T13:34:05.803Z,3.63
2024-01-10T13:36:32.574Z,3.47
2024-01-10T13:38:59.175Z,2.40
2024-01-10T13:41:27.212Z,2.50
2024-01-10T13:43:54.031Z,3.07
2024-01-10T13:46:21.029Z,2.75
2024-01-10T13:48:47.816Z,3.40
2024-01-10T13:51:14.707Z,3.13
2024-01-10T13:53:41.425Z,2.58
2024-01-10T13:56:08.250Z,2.90
2024-01-10T13:58:34.995Z,3.33
2024-01-10T14:01:01.728Z,2.97
2024-01-10T14:03:31.353Z,2.63
2024-01-10T14:06:00.073Z,3.20
2024-01-10T14:08:29.544Z,2.50
2024-01-10T14:10:56.615Z,2.78
2024-01-10T14:13:24.666Z,3.28
2024-01-10T14:15:51.512Z,2.72
2024-01-10T14:18:18.269Z,2.15
2024-01-10T14:20:45.373Z,2.87
2024-01-10T14:23:13.976Z,2.95
2024-01-10T14:25:40.871Z,2.25
2024-01-10T14:28:07.600Z,3.28
2024-01-10T14:30:34.287Z,2.65
2024-01-10T14:33:01.346Z,2.70
2024-01-10T14:35:28.541Z,2.75
2024-01-10T14:37:55.532Z,3.00
2024-01-10T14:40:24.965Z,2.83
2024-01-10T14:42:51.806Z,2.40
2024-01-10T14:45:18.560Z,2.60
2024-01-10T14:47:45.784Z,2.50
2024-01-10T14:50:12.807Z,2.30
2024-01-10T14:52:39.584Z,2.40
2024-01-10T14:55:06.521Z,2.42
2024-01-10T14:57:34.500Z,3.33
2024-01-10T15:00:01.436Z,1.92
2024-01-10T15:02:28.249Z,2.42
2024-01-10T15:04:54.905Z,3.63
2024-01-10T15:07:21.980Z,2.85
2024-01-10T15:09:48.502Z,3.07
2024-01-10T15:12:15.135Z,3.33
2024-01-10T15:14:42.574Z,6.18
2024-01-10T15:17:11.377Z,2.97
2024-01-10T15:19:39.771Z,2.67
2024-01-10T15:22:07.109Z,3.13
2024-01-10T15:24:33.992Z,2.83
2024-01-10T15:27:08.296Z,2.60
2024-01-10T15:29:35.406Z,2.67
2024-01-10T15:32:02.578Z,3.25
2024-01-10T15:34:29.525Z,3.50
2024-01-10T15:36:56.264Z,3.25
2024-01-10T15:39:23.665Z,2.72
2024-01-10T15:41:51.157Z,3.05
2024-01-10T15:44:22.096Z,2.80
2024-01-10T15:46:50.445Z,2.70
2024-01-10T15:49:17.625Z,2.60
2024-01-10T15:51:44.551Z,2.40
2024-01-10T15:54:14.053Z,3.15
2024-01-10T15:56:42.566Z,2.75
2024-01-10T15:59:10.523Z,2.13
2024-01-10T16:01:37.472Z,2.55
2024-01-10T16:04:04.594Z,3.00
2024-01-10T16:06:35.802Z,3.15
2024-01-10T16:09:04.803Z,3.40
2024-01-10T16:11:32.026Z,2.67
2024-01-10T16:13:58.937Z,3.60
2024-01-10T16:16:31.063Z,3.35
2024-01-10T16:18:58.807Z,3.65
2024-01-10T16:21:25.793Z,3.83
2024-01-10T16:23:52.475Z,3.60
2024-01-10T16:26:19.349Z,4.00
2024-01-10T16:28:47.325Z,4.50
2024-01-10T16:31:14.182Z,4.15
2024-01-10T16:33:41.207Z,3.38
2024-01-10T16:36:08.337Z,3.80
2024-01-10T16:38:35.208Z,4.00
2024-01-10T16:41:02.358Z,4.30
2024-01-10T16:43:29.050Z,4.60
2024-01-10T16:45:58.435Z,3.78
2024-01-10T16:48:27.567Z,4.70
2024-01-10T16:50:56.433Z,3.42
2024-01-10T16:53:23.595Z,4.68
2024-01-10T16:55:51.027Z,3.78
2024-01-10T16:58:18.048Z,3.78
2024-01-10T17:00:45.884Z,4.23
2024-01-10T17:03:12.717Z,3.80
2024-01-10T17:05:43.158Z,3.22
2024-01-10T17:08:11.200Z,3.33
2024-01-10T17:10:38.529Z,3.50
2024-01-10T17:13:06.196Z,3.17
2024-01-10T17:15:33.133Z,3.42
2024-01-10T17:18:01.391Z,3.38
2024-01-10T17:20:28.564Z,3.00
2024-01-10T17:22:55.875Z,3.53
2024-01-10T17:25:24.956Z,3.13
2024-01-10T17:27:53.436Z,3.17
2024-01-10T17:30:21.487Z,3.50
2024-01-10T17:32:48.867Z,3.33
2024-01-10T17:35:17.541Z,3.63
2024-01-10T17:37:45.125Z,4.60
2024-01-10T17:40:12.503Z,3.55
2024-01-10T17:42:40.100Z,3.65
2024-01-10T17:45:08.155Z,3.50
2024-01-10T17:47:35.175Z,3.53
2024-01-10T17:50:01.962Z,3.20
2024-01-10T17:52:28.708Z,2.92
2024-01-10T17:54:55.582Z,2.95
2024-01-10T17:57:26.661Z,3.05
2024-01-10T17:59:55.336Z,3.63
2024-01-10T18:02:22.364Z,3.33
2024-01-10T18:04:50.256Z,3.53
2024-01-10T18:07:17.378Z,4.10
2024-01-10T18:09:44.285Z,4.20
2024-01-10T18:12:10.827Z,3.45
2024-01-10T18:14:38.269Z,3.70
2024-01-10T18:17:05.392Z,3.70
2024-01-10T18:19:32.252Z,4.22
2024-01-10T18:22:00.144Z,3.58
2024-01-10T18:24:27.096Z,3.47
2024-01-10T18:26:53.642Z,4.30
2024-01-10T18:29:20.705Z,3.85
2024-01-10T18:31:48.197Z,3.95
2024-01-10T18:34:15.384Z,4.25
2024-01-10T18:36:42.202Z,4.55
2024-01-10T18:39:09.633Z,4.63
2024-01-10T18:41:37.207Z,5.22
2024-01-10T18:44:06.060Z,5.50
2024-01-10T18:46:32.709Z,5.93
2024-01-10T18:48:59.477Z,4.95
2024-01-10T18:51:26.078Z,5.37
2024-01-10T18:53:53.086Z,5.10
2024-01-10T18:56:19.714Z,5.32
2024-01-10T18:58:47.001Z,5.60
2024-01-10T19:01:13.818Z,6.20
2024-01-10T19:03:40.752Z,4.80
2024-01-10T19:06:09.316Z,4.32
2024-01-10T19:08:36.859Z,3.92
2024-01-10T19:11:06.948Z,4.30
2024-01-10T19:13:40.058Z,4.38
2024-01-10T19:16:11.182Z,3.80
2024-01-10T19:18:39.649Z,4.70
2024-01-10T19:21:07.808Z,4.90
2024-01-10T19:23:35.209Z,4.35
2024-01-10T19:26:02.145Z,4.00
2024-01-10T19:28:28.971Z,3.70
2024-01-10T19:30:58.470Z,4.20
2024-01-10T19:33:25.800Z,3.35
2024-01-10T19:35:52.739Z,3.58
2024-01-10T19:38:20.391Z,4.13
2024-01-10T19:40:47.243Z,3.83
2024-01-10T19:43:23.240Z,4.47
2024-01-10T19:45:49.947Z,4.25
2024-01-10T19:48:16.629Z,4.80
2024-01-10T19:50:44.432Z,3.63
2024-01-10T19:53:11.319Z,4.83
2024-01-10T19:55:38.086Z,4.63
2024-01-10T19:58:04.712Z,4.22
2024-01-10T20:00:31.530Z,5.13
2024-01-10T20:02:58.554Z,4.30
2024-01-10T20:05:25.395Z,5.37
2024-01-10T20:07:52.212Z,5.90
2024-01-10T20:10:18.836Z,5.05
2024-01-10T20:12:45.411Z,5.97
2024-01-10T20:15:14.036Z,6.60
2024-01-10T20:17:41.011Z,5.00
2024-01-10T20:20:08.527Z,5.70
2024-01-10T20:22:37.202Z,5.35
2024-01-10T20:25:04.083Z,5.68
2024-01-10T20:27:30.855Z,5.45
2024-01-10T20:29:57.507Z,5.43
2024-01-10T20:32:24.311Z,5.70
2024-01-10T20:34:54.603Z,5.72
2024-01-10T20:37:22.928Z,5.68
2024-01-10T20:39:49.916Z,4.28
2024-01-10T20:42:16.599Z,5.00
2024-01-10T20:44:45.845Z,5.55
2024-01-10T20:47:12.798Z,4.75
2024-01-10T20:49:39.554Z,4.85
2024-01-10T20:52:06.656Z,4.07
2024-01-10T20:54:35.992Z,5.00
2024-01-10T20:57:06.940Z,3.80
2024-01-10T20:59:33.577Z,4.68
2024-01-10T21:02:00.366Z,5.13
2024-01-10T21:04:26.996Z,4.55
2024-01-10T21:07:08.326Z,4.50
2024-01-10T21:09:40.768Z,3.80
2024-01-10T21:12:11.911Z,5.95
2024-01-10T21:14:41.847Z,4.20
2024-01-10T21:17:11.123Z,4.00
2024-01-10T21:19:37.824Z,4.97
2024-01-10T21:22:04.664Z,4.43
2024-01-10T21:24:34.743Z,4.70
2024-01-10T21:27:01.919Z,3.40
2024-01-10T21:29:28.505Z,4.18
2024-01-10T21:31:55.179Z,4.50
2024-01-10T21:34:21.893Z,4.93
2024-01-10T21:36:48.806Z,4.72
2024-01-10T21:39:15.405Z,3.70
2024-01-10T21:41:41.931Z,4.13
2024-01-10T21:44:08.594Z,4.00
2024-01-10T21:46:35.385Z,4.75
2024-01-10T21:49:02.002Z,4.80
2024-01-10T21:51:28.908Z,5.13
2024-01-10T21:53:55.626Z,5.03
2024-01-10T21:56:22.298Z,4.20
2024-01-10T21:58:51.653Z,4.35
2024-01-10T22:01:18.983Z,4.35
2024-01-10T22:03:45.920Z,4.70
2024-01-10T22:06:12.904Z,5.38
2024-01-10T22:08:39.628Z,4.77
2024-01-10T22:11:06.244Z,4.38
2024-01-10T22:13:32.953Z,5.57
2024-01-10T22:16:00.935Z,4.68
2024-01-10T22:18:27.829Z,5.95
2024-01-10T22:20:57.105Z,5.60
2024-01-10T22:23:23.878Z,4.18
2024-01-10T22:25:50.817Z,4.68
2024-01-10T22:28:17.727Z,5.82
2024-01-10T22:30:44.539Z,3.97
2024-01-10T22:33:12.553Z,5.20
2024-01-10T22:35:39.510Z,3.83
2024-01-10T22:38:06.146Z,4.32
2024-01-10T22:40:33.188Z,4.45
2024-01-10T22:42:59.844Z,3.80
2024-01-10T22:45:26.818Z,4.17
2024-01-10T22:47:53.578Z,4.15
2024-01-10T22:50:20.523Z,3.38
2024-01-10T22:52:47.275Z,4.50
2024-01-10T22:55:14.009Z,5.47
2024-01-10T22:57:41.317Z,4.73
2024-01-10T23:00:13.287Z,3.75
2024-01-10T23:02:40.121Z,4.20
2024-01-10T23:05:08.749Z,4.10
2024-01-10T23:07:35.620Z,4.05
2024-01-10T23:10:02.407Z,4.70
2024-01-10T23:12:29.240Z,4.15
2024-01-10T23:14:56.078Z,4.53
2024-01-10T23:17:23.011Z,4.63
2024-01-10T23:19:49.836Z,3.63
2024-01-10T23:22:16.608Z,4.70
2024-01-10T23:24:44.678Z,4.68
2024-01-10T23:27:11.515Z,5.07
2024-01-10T23:29:38.386Z,4.30
2024-01-10T23:32:05.911Z,3.40
2024-01-10T23:34:32.601Z,4.33
2024-01-10T23:36:59.611Z,5.78
2024-01-10T23:39:26.189Z,3.70
2024-01-10T23:41:52.841Z,4.57
2024-01-10T23:44:19.544Z,4.28
2024-01-10T23:46:46.571Z,3.73
2024-01-10T23:49:13.635Z,4.70
2024-01-10T23:51:40.233Z,4.03
2024-01-10T23:54:07.467Z,3.47
2024-01-10T23:56:35.916Z,3.88
2024-01-10T23:59:03.183Z,2.97
